createdAt,value
2023-03-06T00:03:42.015Z,97998.00
2023-03-06T00:07:46.540Z,97996.34
2023-03-06T00:11:52.442Z,97989.22
2023-03-06T00:16:02.341Z,97989.88
2023-03-06T00:20:13.538Z,97984.16
2023-03-06T00:24:26.662Z,97975.13
2023-03-06T00:28:38.476Z,97977.50
2023-03-06T00:32:42.725Z,97970.75
2023-03-06T00:36:55.190Z,97978.38
2023-03-06T00:41:13.777Z,97972.16
2023-03-06T00:55:28.158Z,97966.66
2023-03-06T00:59:32.436Z,97958.91
2023-03-06T01:03:40.508Z,97967.03
2023-03-06T01:07:44.525Z,97958.09
2023-03-06T01:11:50.197Z,97962.00
2023-03-06T01:16:08.780Z,97965.44
2023-03-06T01:20:18.311Z,97955.28
2023-03-06T01:24:26.617Z,97954.41
2023-03-06T01:28:41.302Z,97939.22
2023-03-06T01:32:48.405Z,97943.44
2023-03-06T01:36:59.827Z,97941.06
2023-03-06T01:41:10.465Z,97933.47
2023-03-06T01:45:21.129Z,97929.53
2023-03-06T01:49:42.152Z,97936.66
2023-03-06T01:53:53.775Z,97932.47
2023-03-06T01:58:07.272Z,97926.06
2023-03-06T02:02:15.537Z,97927.47
2023-03-06T02:06:24.103Z,97925.69
2023-03-06T02:10:34.149Z,97925.13
2023-03-06T02:14:40.903Z,97924.28
2023-03-06T02:18:46.722Z,97920.06
2023-03-06T02:23:29.431Z,97917.38
2023-03-06T02:27:36.709Z,97914.31
2023-03-06T02:31:42.537Z,97916.03
2023-03-06T02:35:54.065Z,97905.66
2023-03-06T02:40:13.065Z,97899.38
2023-03-06T02:44:20.965Z,97892.03
2023-03-06T02:48:26.701Z,97897.19
2023-03-06T02:52:35.485Z,97902.66
2023-03-06T02:56:41.980Z,97899.69
2023-03-06T03:00:48.566Z,97897.16
2023-03-06T03:04:52.273Z,97893.16
2023-03-06T03:09:02.574Z,97895.19
2023-03-06T03:13:08.850Z,97898.13
2023-03-06T03:17:15.530Z,97886.25
2023-03-06T03:21:25.031Z,97883.06
2023-03-06T03:25:33.111Z,97885.06
2023-03-06T03:29:39.349Z,97888.25
2023-03-06T03:33:44.680Z,97878.63
2023-03-06T03:37:52.576Z,97882.97
2023-03-06T03:41:56.309Z,97881.13
2023-03-06T03:46:03.256Z,97880.34
2023-03-06T03:50:11.626Z,97876.56
2023-03-06T03:54:21.763Z,97871.78
2023-03-06T03:58:30.036Z,97869.78
2023-03-06T04:02:34.367Z,97858.25
2023-03-06T04:30:34.898Z,97846.63
2023-03-06T04:34:44.704Z,97844.69
2023-03-06T04:39:06.824Z,97837.97
2023-03-06T04:43:13.087Z,97841.56
2023-03-06T04:47:19.314Z,97846.59
2023-03-06T04:51:25.687Z,97846.84
2023-03-06T04:55:32.758Z,97849.25
2023-03-06T04:59:38.123Z,97846.13
2023-03-06T05:03:45.929Z,97846.63
2023-03-06T05:07:48.849Z,97838.44
2023-03-06T05:11:52.117Z,97831.44
2023-03-06T05:16:03.822Z,97838.19
2023-03-06T05:20:13.606Z,97829.00
2023-03-06T05:24:18.989Z,97817.53
2023-03-06T05:28:24.757Z,97811.97
2023-03-06T05:32:27.649Z,97801.50
2023-03-06T05:36:34.277Z,97814.25
2023-03-06T05:40:42.167Z,97811.13
2023-03-06T05:44:50.536Z,97818.25
2023-03-06T05:48:58.413Z,97827.91
2023-03-06T05:53:07.316Z,97832.06
2023-03-06T05:57:11.235Z,97823.94
2023-03-06T06:01:18.601Z,97814.31
2023-03-06T06:05:26.540Z,97827.09
2023-03-06T06:09:33.039Z,97825.97
2023-03-06T06:13:42.929Z,97825.41
2023-03-06T06:22:47.988Z,97825.03
2023-03-06T06:27:21.916Z,97825.31
2023-03-06T06:31:32.669Z,97827.38
2023-03-06T06:36:39.050Z,97822.56
2023-03-06T06:51:00.954Z,97821.03
2023-03-06T07:29:43.186Z,97827.47
2023-03-06T07:33:56.025Z,97830.16
2023-03-06T07:38:10.580Z,97824.97
2023-03-06T07:42:47.732Z,97823.91
2023-03-06T07:51:18.631Z,97844.00
2023-03-06T07:55:23.055Z,97833.94
2023-03-06T08:03:53.044Z,97849.81
2023-03-06T08:08:08.054Z,97852.97
2023-03-06T08:12:14.677Z,97859.38
2023-03-06T08:16:25.861Z,97857.25
2023-03-06T08:20:39.449Z,97848.31
2023-03-06T08:24:53.187Z,97853.03
2023-03-06T08:29:20.034Z,97847.50
2023-03-06T08:33:36.525Z,97852.00
2023-03-06T08:37:41.020Z,97856.25
2023-03-06T08:50:39.503Z,97849.06
2023-03-06T08:55:31.071Z,97838.44
2023-03-06T08:59:36.212Z,97830.72
2023-03-06T09:12:29.262Z,97834.28
2023-03-06T09:16:45.612Z,97831.94
2023-03-06T09:20:59.732Z,97833.34
2023-03-06T09:25:07.343Z,97834.72
2023-03-06T09:29:13.816Z,97823.72
2023-03-06T09:33:22.821Z,97822.28
2023-03-06T09:37:28.730Z,97821.09
2023-03-06T09:41:45.492Z,97815.31
2023-03-06T09:50:33.926Z,97808.03
2023-03-06T09:54:59.856Z,97799.69
2023-03-06T09:59:19.641Z,97804.03
2023-03-06T10:08:51.800Z,97801.94
2023-03-06T10:17:58.937Z,97800.66
2023-03-06T10:22:28.412Z,97794.81
2023-03-06T10:31:41.937Z,97779.50
2023-03-06T10:35:56.119Z,97777.31
2023-03-06T10:40:29.652Z,97767.75
2023-03-06T10:49:40.033Z,97767.69
2023-03-06T10:54:09.374Z,97754.59
2023-03-06T10:58:43.725Z,97757.22
2023-03-06T11:08:04.940Z,97738.06
2023-03-06T11:12:40.346Z,97724.44
2023-03-06T11:16:59.253Z,97721.75
2023-03-06T11:21:25.830Z,97720.88
2023-03-06T11:25:45.471Z,97721.53
2023-03-06T11:30:03.211Z,97712.66
2023-03-06T11:34:26.936Z,97717.25
2023-03-06T11:38:48.057Z,97709.88
2023-03-06T11:43:11.409Z,97697.72
2023-03-06T11:47:59.566Z,97689.34
2023-03-06T11:52:43.406Z,97688.25
2023-03-06T11:57:24.522Z,97691.50
2023-03-06T12:01:59.971Z,97684.44
2023-03-06T12:06:29.500Z,97684.59
2023-03-06T12:10:37.370Z,97668.75
2023-03-06T12:15:10.907Z,97663.72
2023-03-06T12:19:34.953Z,97656.69
2023-03-06T12:23:46.402Z,97644.53
2023-03-06T12:27:56.002Z,97634.53
2023-03-06T12:32:30.542Z,97621.16
2023-03-06T12:37:03.143Z,97620.00
2023-03-06T12:41:42.710Z,97605.44
2023-03-06T12:45:47.829Z,97604.44
2023-03-06T12:49:57.552Z,97602.44
2023-03-06T12:54:06.234Z,97587.16
2023-03-06T12:58:31.756Z,97590.81
2023-03-06T13:03:24.078Z,97590.63
2023-03-06T13:08:04.179Z,97577.72
2023-03-06T13:22:52.698Z,97552.19
2023-03-06T13:27:21.373Z,97546.34
2023-03-06T13:31:58.998Z,97528.97
2023-03-06T13:36:39.702Z,97532.16
2023-03-06T13:45:58.952Z,97523.00
2023-03-06T13:50:23.069Z,97513.81
2023-03-06T13:55:07.439Z,97517.63
2023-03-06T13:59:44.225Z,97499.81
2023-03-06T14:04:08.927Z,97512.28
2023-03-06T14:08:27.766Z,97520.31
2023-03-06T14:12:37.351Z,97518.25
2023-03-06T14:16:51.355Z,97515.09
2023-03-06T14:21:05.998Z,97511.63
2023-03-06T14:25:19.736Z,97515.13
2023-03-06T14:29:30.242Z,97504.03
2023-03-06T14:33:45.201Z,97512.13
2023-03-06T14:37:53.201Z,97533.72
2023-03-06T14:42:35.217Z,97529.81
2023-03-06T14:46:43.329Z,97549.50
2023-03-06T14:51:00.275Z,97537.69
2023-03-06T14:55:04.998Z,97543.75
2023-03-06T14:59:12.794Z,97539.81
2023-03-06T15:03:22.492Z,97535.91
2023-03-06T15:07:32.694Z,97526.78
2023-03-06T15:11:58.585Z,97525.09
2023-03-06T15:16:15.005Z,97520.81
2023-03-06T15:20:51.278Z,97522.28
2023-03-06T15:25:32.949Z,97524.53
2023-03-06T15:29:40.397Z,97525.00
2023-03-06T15:33:46.761Z,97524.22
2023-03-06T15:37:53.281Z,97533.41
2023-03-06T15:42:19.737Z,97538.94
2023-03-06T15:46:23.037Z,97539.25
2023-03-06T15:50:30.917Z,97550.41
2023-03-06T15:54:34.373Z,97556.06
2023-03-06T15:58:41.107Z,97545.56
2023-03-06T16:02:48.575Z,97546.88
2023-03-06T16:06:50.935Z,97540.47
2023-03-06T16:11:00.454Z,97535.94
2023-03-06T16:15:13.222Z,97542.44
2023-03-06T16:19:27.837Z,97543.69
2023-03-06T16:23:31.342Z,97537.63
2023-03-06T16:27:34.401Z,97538.22
2023-03-06T16:31:40.272Z,97538.16
2023-03-06T16:35:45.119Z,97535.06
2023-03-06T16:39:49.022Z,97542.59
2023-03-06T16:43:52.230Z,97537.47
2023-03-06T16:47:55.355Z,97533.75
2023-03-06T16:52:01.171Z,97528.56
2023-03-06T16:56:05.969Z,97539.19
2023-03-06T17:00:12.481Z,97542.94
2023-03-06T17:04:17.468Z,97547.81
2023-03-06T17:08:21.036Z,97542.78
2023-03-06T17:16:45.839Z,97555.31
2023-03-06T17:20:51.499Z,97558.25
2023-03-06T17:24:55.000Z,97557.28
2023-03-06T17:28:58.703Z,97573.03
2023-03-06T17:37:23.641Z,97574.56
2023-03-06T17:41:28.560Z,97566.88
2023-03-06T17:45:31.641Z,97567.06
2023-03-06T17:49:38.265Z,97575.25
2023-03-06T17:53:43.220Z,97585.97
2023-03-06T17:57:54.264Z,97590.34
2023-03-06T18:15:01.245Z,97592.91
2023-03-06T18:23:46.040Z,97616.78
2023-03-06T18:27:54.795Z,97622.16
2023-03-06T18:32:00.542Z,97623.75
2023-03-06T18:36:05.889Z,97624.91
2023-03-06T18:40:14.080Z,97635.03
2023-03-06T18:44:23.510Z,97637.78
2023-03-06T18:48:32.530Z,97630.38
2023-03-06T18:52:38.576Z,97634.66
2023-03-06T18:56:45.968Z,97627.28
2023-03-06T19:00:52.765Z,97639.06
2023-03-06T19:04:59.775Z,97641.50
2023-03-06T19:09:13.892Z,97639.41
2023-03-06T19:13:19.958Z,97652.63
2023-03-06T19:17:32.758Z,97644.94
2023-03-06T19:21:40.465Z,97634.28
2023-03-06T19:26:06.448Z,97627.84
2023-03-06T19:30:15.248Z,97632.13
2023-03-06T19:34:31.091Z,97627.81
2023-03-06T19:38:43.095Z,97641.00
2023-03-06T19:42:55.082Z,97635.63
2023-03-06T19:47:08.727Z,97642.53
2023-03-06T19:51:18.575Z,97640.47
2023-03-06T19:55:29.490Z,97649.59
2023-03-06T19:59:39.718Z,97646.16
2023-03-06T20:03:48.001Z,97654.41
2023-03-06T20:07:54.557Z,97651.19
2023-03-06T20:12:01.698Z,97658.16
2023-03-06T20:16:10.077Z,97655.09
2023-03-06T20:20:27.426Z,97663.69
2023-03-06T20:28:57.686Z,97673.06
2023-03-06T20:33:07.328Z,97677.84
2023-03-06T20:37:25.993Z,97678.56
2023-03-06T20:41:43.821Z,97674.31
2023-03-06T20:59:17.824Z,97658.47
2023-03-06T21:08:12.934Z,97674.16
2023-03-06T21:13:08.896Z,97668.84
2023-03-06T21:21:52.439Z,97669.44
2023-03-06T22:33:06.484Z,97662.00
